Latest Coastal Weather Observations for Charles Point

IDD60701

Issued at 8:21 pm CST Saturday 22 February 2020 (issued every 10 minutes, with the page automatically refreshed every 10 minutes)

About coastal observations | Map of coastal stations | Coastal observations for NT | Marine services | Other Formats
Station Details ID: 014031 Name: CHARLES POINT Lat: -12.39 Lon: 130.63 Height: 14.0 m
Data from the previous 72 hours. | See also: Recent months for locations in Northern Territory
Date/Time
CST
Wind Sea
Height
m
Swell Vis
km
Cloud Weather Temp
°C
Press
hPa
Rain since
9am
mm
Dir  Spd
kts
Gust
kts
Height
m
Period
s
Dir
22/08:00pm W 8 13 - - - - - - - 30.1 1006.7 0.0
22/07:30pm W 7 15 - - - - - - - 30.1 1006.4 0.0
22/07:00pm W 8 14 - - - - - - - 30.1 1005.8 0.0
22/06:30pm W 8 14 - - - - - - - 30.3 1005.5 0.0
22/06:00pm W 8 13 - - - - - - - 30.8 1005.3 0.0
22/05:30pm W 9 15 - - - - - - - 31.0 1005.0 0.0
22/05:00pm W 8 14 - - - - - - - 31.1 1005.3 0.0
22/04:30pm W 7 13 - - - - - - - 31.4 1005.7 0.0
22/04:00pm W 8 14 - - - - - - - 31.8 1005.8 0.0
22/03:30pm W 9 15 - - - - - - - 31.7 1006.0 0.0
22/03:00pm W 9 15 - - - - - - - 31.5 1006.5 0.0
22/02:30pm W 9 14 - - - - - - - 31.9 1006.8 0.0
22/02:00pm W 8 16 - - - - - - - 32.0 1007.1 0.0
22/01:30pm W 9 16 - - - - - - - 31.7 1007.5 0.0
22/01:00pm W 9 17 - - - - - - - 31.5 1008.0 0.0
22/12:30pm WSW 6 13 - - - - - - - 32.1 1008.6 0.0
22/12:00pm WSW 7 15 - - - - - - - 31.9 1008.6 0.0
22/11:30am WSW 7 15 - - - - - - - 31.4 1008.7 0.0
22/11:00am WSW 6 15 - - - - - - - 31.3 1009.0 0.0
22/10:30am WSW 7 13 - - - - - - - 31.0 1009.0 0.0
22/10:00am WSW 8 16 - - - - - - - 30.6 1009.1 0.0
22/09:30am WSW 6 13 - - - - - - - 30.8 1008.9 0.0
22/09:00am WSW 7 16 - - - - - - - 30.4 1008.8 2.8
22/08:30am WSW 5 12 - - - - - - - 30.2 1008.4 2.8
22/08:00am WSW 6 11 - - - - - - - 29.6 1008.2 2.8
22/07:30am WSW 6 13 - - - - - - - 29.4 1007.9 2.8
22/07:00am W 6 11 - - - - - - - 29.3 1007.6 2.8
22/06:30am W 7 16 - - - - - - - 29.4 1007.6 2.8
22/06:00am W 7 13 - - - - - - - 29.4 1007.4 2.8
22/05:30am W 6 11 - - - - - - - 29.4 1007.4 2.8
22/05:00am W 6 12 - - - - - - - 29.4 1007.2 2.8
22/04:30am W 8 16 - - - - - - - 29.4 1007.1 2.8
22/04:00am W 7 14 - - - - - - - 29.4 1007.1 2.8
22/03:30am W 7 15 - - - - - - - 29.3 1007.2 2.8
22/03:00am W 6 11 - - - - - - - 29.3 1007.4 2.8
22/02:30am W 5 9 - - - - - - - 29.2 1007.7 2.8
22/02:00am W 5 11 - - - - - - - 29.2 1008.2 2.8
22/01:30am W 8 14 - - - - - - - 29.2 1008.9 2.8
22/01:00am W 9 13 - - - - - - - 29.2 1009.4 2.6
22/12:30am WNW 8 12 - - - - - - - 29.3 1010.0 2.6
22/12:00am WNW 7 13 - - - - - - - 29.3 1010.0 2.6
 
Date/Time
CST
Wind Sea
Height
m
Swell Vis
km
Cloud Weather Temp
°C
Press
hPa
Rain since
9am
mm
Dir  Spd
kts
Gust
kts
Height
m
Period
s
Dir
21/11:30pm W 5 9 - - - - - - - 29.3 1010.0 2.6
21/11:00pm W 6 11 - - - - - - - 29.2 1010.1 2.6
21/10:30pm WSW 4 9 - - - - - - - 29.0 1009.8 2.6
21/10:00pm WSW 5 9 - - - - - - - 29.1 1009.6 2.6
21/09:30pm WSW 4 8 - - - - - - - 29.1 1009.1 2.6
21/09:00pm WSW 5 9 - - - - - - - 29.2 1008.6 2.6
21/08:30pm W 5 9 - - - - - - - 29.1 1008.2 2.6
21/08:00pm WSW 4 7 - - - - - - - 29.2 1008.1 2.6
21/07:30pm WSW 4 7 - - - - - - - 29.1 1007.7 2.6
21/07:00pm WSW 3 5 - - - - - - - 29.1 1007.5 2.6
21/06:30pm W 3 6 - - - - - - - 29.2 1007.1 2.6
21/06:00pm W 4 8 - - - - - - - 29.0 1006.8 2.6
21/05:30pm W 3 5 - - - - - - - 29.1 1006.6 2.6
21/05:00pm W 6 10 - - - - - - - 29.1 1006.3 2.6
21/04:30pm W 5 10 - - - - - - - 28.9 1006.6 2.6
21/04:00pm WNW 6 12 - - - - - - - 29.0 1006.6 2.6
21/03:30pm W 6 13 - - - - - - - 28.2 1006.8 1.4
21/03:00pm WSW 6 13 - - - - - - - 29.8 1006.9 0.0
21/02:30pm SW 6 11 - - - - - - - 31.9 1007.1 0.0
21/02:00pm WSW 4 9 - - - - - - - 31.6 1007.5 0.0
21/01:30pm SW 5 8 - - - - - - - 31.8 1008.0 0.0
21/01:00pm SW 5 9 - - - - - - - 31.5 1008.5 0.0
21/12:30pm SW 5 8 - - - - - - - 31.1 1008.6 0.0
21/12:00pm WSW 4 10 - - - - - - - 31.1 1008.7 0.0
21/11:30am SSW 5 13 - - - - - - - 30.7 1008.8 0.0
21/11:00am SSW 6 11 - - - - - - - 29.9 1009.0 0.0
21/10:30am SSW 5 10 - - - - - - - 29.8 1009.2 0.0
21/10:00am SSW 6 10 - - - - - - - 29.5 1009.1 0.0
21/09:30am SW 5 8 - - - - - - - 28.9 1009.1 0.0
21/09:00am WSW 3 6 - - - - - - - 28.6 1008.9 31.0
21/08:30am WSW 3 5 - - - - - - - 28.4 1008.4 31.0
21/08:00am WSW 1 2 - - - - - - - 27.4 1007.8 31.0
21/07:30am SW 3 4 - - - - - - - 25.4 1007.5 31.0
21/07:00am SSW 3 4 - - - - - - - 24.8 1007.2 31.0
21/06:30am WNW 2 3 - - - - - - - 24.6 1006.6 31.0
21/06:00am SSW 3 5 - - - - - - - 24.4 1006.9 31.0
21/05:30am S 4 6 - - - - - - - 24.3 1007.4 31.0
21/05:00am S 4 6 - - - - - - - 24.6 1007.7 31.0
21/04:30am S 6 10 - - - - - - - 24.8 1008.1 31.0
21/04:00am SSE 6 9 - - - - - - - 25.9 1008.4 31.0
21/03:30am N 8 10 - - - - - - - 27.7 1007.9 31.0
21/03:00am NNE 8 13 - - - - - - - 28.0 1007.7 31.0
21/02:30am NNE 9 13 - - - - - - - 27.8 1007.9 31.0
21/02:00am NNE 15 21 - - - - - - - 27.4 1008.0 31.0
21/01:30am NNE 17 23 - - - - - - - 27.5 1008.8 31.0
21/01:00am NE 21 28 - - - - - - - 27.1 1008.8 31.0
21/12:30am NE 22 32 - - - - - - - 26.7 1009.0 31.0
21/12:06am ENE 16 29 - - - - - - - 26.6 1009.7 30.8
21/12:00am ENE 13 24 - - - - - - Recent precip. 26.4 1009.8 30.8
 
Date/Time
CST
Wind Sea
Height
m
Swell Vis
km
Cloud Weather Temp
°C
Press
hPa
Rain since
9am
mm
Dir  Spd
kts
Gust
kts
Height
m
Period
s
Dir
20/11:30pm E 9 15 - - - - - - - 25.2 1010.2 30.6
20/11:00pm E 8 13 - - - - - - - 24.7 1009.6 30.0
20/10:30pm ESE 5 8 - - - - - - - 23.9 1010.2 28.8
20/10:00pm ESE 8 14 - - - - - - - 23.9 1009.7 25.2
20/09:30pm SE 8 16 - - - - - - - 23.8 1010.1 18.6
20/09:00pm SE 7 14 - - - - - - Rain 23.7 1009.4 13.8
20/08:30pm SSE 11 20 - - - - - - - 26.4 1008.2 0.6
20/08:00pm WSW 7 15 - - - - - - - 30.1 1006.8 0.2
20/07:30pm WSW 7 13 - - - - - - - 30.1 1006.5 0.2
20/07:00pm WSW 7 13 - - - - - - - 30.1 1006.2 0.2
20/06:30pm WSW 6 11 - - - - - - - 30.0 1005.6 0.2
20/06:00pm W 5 10 - - - - - - - 31.2 1004.8 0.2
20/05:30pm W 5 11 - - - - - - - 30.9 1004.0 0.2
20/05:00pm W 5 9 - - - - - - - 31.0 1004.3 0.2
20/04:30pm W 6 10 - - - - - - - 30.5 1004.3 0.2
20/04:00pm W 8 16 - - - - - - - 30.9 1004.7 0.2
20/03:30pm WSW 6 11 - - - - - - - 30.9 1005.0 0.2
20/03:00pm WSW 6 11 - - - - - - - 30.6 1005.8 0.2
20/02:30pm W 5 11 - - - - - - - 30.1 1006.5 0.2
20/02:00pm WSW 6 11 - - - - - - - 29.8 1006.8 0.2
20/01:30pm W 8 15 - - - - - - - 30.2 1007.1 0.2
20/01:00pm W 7 16 - - - - - - - 30.3 1007.3 0.2
20/12:30pm WSW 7 12 - - - - - - - 30.7 1007.3 0.2
20/12:00pm WSW 5 12 - - - - - - - 30.3 1007.3 0.2
20/11:30am W 4 10 - - - - - - - 29.7 1007.8 0.2
20/11:00am WSW 6 12 - - - - - - - 29.9 1008.2 0.2
20/10:30am WSW 4 8 - - - - - - - 29.2 1008.8 0.2
20/10:00am W 4 6 - - - - - - - 28.7 1008.9 0.0
20/09:30am W 3 6 - - - - - - - 28.0 1008.4 0.0
20/09:00am SW 2 3 - - - - - - - 27.0 1007.7 19.0
20/08:30am WSW 2 3 - - - - - - - 26.6 1007.4 19.0
20/08:00am W 3 5 - - - - - - - 25.1 1007.2 19.0
20/07:30am W 3 4 - - - - - - - 24.5 1007.3 19.0
20/07:00am NNW 3 6 - - - - - - - 25.6 1007.3 19.0
20/06:30am NNW 3 5 - - - - - - - 24.2 1007.3 18.8
20/06:00am CALM 0 0 - - - - - - Rain 23.0 1007.4 17.6
20/05:30am W 2 3 - - - - - - - 22.5 1007.7 16.8
20/05:00am SSE 5 8 - - - - - - - 22.4 1007.4 16.2
20/04:30am SE 9 17 - - - - - - - 22.3 1007.5 14.8
20/04:00am SSE 13 26 - - - - - - - 22.6 1007.6 9.4
20/03:30am SE 7 11 - - - - - - - 22.8 1007.5 5.8
20/03:00am ESE 12 23 - - - - - - Rain 22.7 1007.9 4.0
20/02:33am N 7 33 - - - - - - - 25.6 1008.1 0.2
20/02:32am NNW 5 33 - - - - - - - 26.1 1008.0 0.2
20/02:30am NW 1 19 - - - - - - - 29.8 1008.4 0.2
20/02:00am WNW 8 10 - - - - - - - 29.8 1007.2 0.2
20/01:30am WNW 10 13 - - - - - - - 29.8 1006.2 0.2
20/01:00am WNW 8 11 - - - - - - - 29.9 1007.1 0.2
20/12:30am WNW 8 12 - - - - - - - 29.9 1007.3 0.2
20/12:00am WNW 8 12 - - - - - - - 30.0 1007.6 0.2
 
Date/Time
CST
Wind Sea
Height
m
Swell Vis
km
Cloud Weather Temp
°C
Press
hPa
Rain since
9am
mm
Dir  Spd
kts
Gust
kts
Height
m
Period
s
Dir
19/11:30pm W 6 11 - - - - - - - 30.0 1007.6 0.2
19/11:00pm W 6 9 - - - - - - - 29.9 1007.7 0.2
19/10:30pm W 6 10 - - - - - - - 29.9 1007.5 0.2
19/10:00pm W 4 7 - - - - - - - 29.9 1007.2 0.2
19/09:30pm W 6 12 - - - - - - - 30.1 1006.5 0.2
19/09:00pm W 5 9 - - - - - - - 30.0 1006.2 0.2
19/08:30pm W 5 9 - - - - - - - 30.1 1006.1 0.2

Other formats

Comma delimited format used in spreadsheet applications
http://www.bom.gov.au/fwo/IDD60701/IDD60701.99510.axf

JavaScript Object Notation format (JSON) in row-major order
http://www.bom.gov.au/fwo/IDD60701/IDD60701.99510.json

Data quality

Most of these data are generated automatically and are frequently updated. Quality checks on data are not normally performed. It is possible for incorrect values to appear. Refer to information at About Latest Weather Observations and please check the disclaimer before using these data.